Fort Barnwell, North Carolina
Current Conditions -  °F | °C
As of 11:15 PM on Sunday 21 Dec 2014 (Local Time) from KISO Reporting Station
Broken Clouds Broken Clouds  
Wind Chill: 38°   Ceiling: 3300
Heat Index: 43°   Visibility: 10mi
Dew Point: 37°   Wind: 9mph
Humidity: 77%   Direction: 30°NNE
Pressure: 30.22"   Gusts: NA
Location:  35.2736°N, 77.3791°W
Report Text: KISO 220415Z AUTO 03008KT 10SM BKN033 BKN042 06/03 A3022 RMK AO2 T00620025
Loading
Personal Weather Stations






























Interactive Weather Map New forecast layout! Learn more

10-Day Weather Forecast

Advertisements
Track Severe Weather on mobile